Tiempo atmosférico en la estación meteorológica de Guijo De Granadilla, Cáceres (393 m.)



Fecha
DESCASC
Temp. máxima en grados centígrados (hora)
DESCASC
Temp. mínima en grados centígrados (hora)
DESCASC
Temp. media en grados centígrados
DESCASC
Racha de viento máxima en m/sg (hora)
DESCASC
Velocidad máxima media en intervalos de 10 minutos(hora)
DESCASC
Precipitaciones diarias en mm
DESCASC
Precipitaciones de 00:00 a 06:00 en mm
DESCASC
Precipitaciones de 06:00 a 12:00 en mm
DESCASC
Precipitaciones de 12:00 a 18:00 en mm
DESCASC
Precipitaciones de 18:00 a 24:00 en mm
DESCASC
26-11-2020 12 (01:20) 9 (23:59) 10.5 10.28 (01:30) 5.56 (01:20) 7.2 2.6 0.6 3.8 0.2
25-11-2020 12.7 (18:40) 8.5 (03:40) 10.6 12.5 (17:00) 5.83 (18:50) 9.8 0 4.4 5 0.4
24-11-2020 15.4 (15:10) 3.4 (08:10) 9.4 5 (13:40) 2.78 (12:50) 0 0 0 0 0
23-11-2020 17.3 (15:10) 4 (05:40) 10.6 3.89 (02:50) 2.5 (03:00) 0 0 0 0 0
22-11-2020 17.6 (15:20) 3.4 (00:00) 10.5 3.06 (03:40) 1.94 (05:10) 0 0 0 0 0
21-11-2020 18.9 (15:50) 6.5 (00:00) 12.7 5.83 (10:40) 3.33 (10:50) 0 0 0 0 0
20-11-2020 19.4 (15:30) 11 (00:00) 15.2 9.72 (05:20) 6.11 (05:20) 0 0 0 0 0
19-11-2020 23.5 (15:40) 6.4 (00:00) 15 10 (12:00) 6.11 (22:40) 0.2 0 0.2 0 0
18-11-2020 19.7 (15:40) 6.8 (00:00) 13.3 3.33 (14:40) 2.22 (16:00) 0 0 0 0 0
17-11-2020 19.5 (14:40) 8.5 (00:00) 14 4.72 (08:40) 3.06 (08:40) -- 0 0 -- 0
16-11-2020 20.2 (14:50) 9.8 (00:00) 15 4.72 (16:00) 2.78 (16:10) 0 0 0 0 0
15-11-2020 17.8 (15:10) 12.7 (00:00) 15.2 7.5 (10:50) 3.89 (10:30) 2.6 2.4 0 0.2 0
14-11-2020 15.2 (14:20) 11.2 (00:00) 13.2 5.28 (14:00) 3.06 (14:00) 0.2 0 0.2 0 0
13-11-2020 17.5 (15:00) 8.4 (00:00) 12.9 3.89 (15:30) 2.5 (15:30) 0 0 0 0 0
12-11-2020 16.3 (15:40) 9.4 (00:00) 12.8 4.17 (20:20) 2.22 (09:30) 0 0 0 0 0
11-11-2020 18.5 (14:10) 7.3 (00:00) 12.9 4.17 (09:40) 2.5 (09:40) 0 0 0 0 0
10-11-2020 19.2 (16:10) 8.3 (00:00) 13.8 4.72 (05:10) 2.78 (08:20) 0.2 0 0 0.2 0
09-11-2020 17.4 (15:40) 10.1 (00:00) 13.8 5 (00:10) 3.06 (00:10) 1.2 0.8 0.2 0 0.2
08-11-2020 14.7 (13:40) 12.3 (00:00) 13.5 10.83 (11:20) 6.11 (11:20) 12.6 0 0.6 7.8 4.2
07-11-2020 16 (16:20) 11.9 (00:00) 13.9 9.17 (06:50) 4.44 (15:00) 15.2 5.6 9.2 0.4 0
06-11-2020 21.1 (13:20) 12 (00:00) 16.6 15.83 (12:00) 9.72 (11:40) 8.4 0.6 0.2 0 7.6
05-11-2020 17.1 (12:40) 10.1 (00:00) 13.6 15.56 (07:20) 8.33 (09:10) 15.8 2.2 0.4 13.2 0
04-11-2020 13.3 (00:00) 9.2 (00:00) 11.3 9.44 (09:50) 5.83 (09:00) 2.2 0 0 0.6 1.6
03-11-2020 18 (13:10) 13.3 (00:00) 15.7 11.11 (10:10) 6.67 (09:20) 0 0 0 0 0
02-11-2020 20.1 (14:00) 13.6 (00:00) 16.9 4.17 (11:50) 2.5 (12:00) 0 0 0 0 0
01-11-2020 21.1 (15:00) 10.6 (00:00) 15.9 4.17 (02:00) 3.06 (04:40) 0 0 0 0 0
31-10-2020 23.5 (15:30) 9.8 (00:00) 16.7 4.17 (08:50) 2.22 (03:20) 0.2 0 0.2 0 0
30-10-2020 23.1 (16:40) 8.7 (00:00) 15.9 3.89 (06:00) 2.22 (09:30) 0 0 0 0 0
29-10-2020 20.5 (16:10) 9.6 (00:00) 15.1 5 (11:50) 2.22 (12:10) 0.2 0 0.2 0 0
28-10-2020 15.6 (16:40) 9.8 (00:00) 12.7 3.61 (14:10) 2.22 (14:10) 2 0.2 1.2 0.6 0

Gráficas

Temp. máximas Temp. mínimas Temp. medias Precipitaciones Rachas de viento máximas Velocidades máximas media en intervalos de 10 minutos

Datos horarios

Fecha y hora oficial Temperatura (ºC) Velocidad del viento (km/h) Dirección del viento Racha (km/h) Dirección de racha Precipitación (mm) Presión (hPa) Tendencia (hPa) Humedad (%)
2020-11-26 23:00:00 9.6 3 Norte 5 Este 0 -- -- 97
2020-11-26 22:00:00 9.5 3 Nordeste 8 Nordeste 0.2 -- -- 96
2020-11-26 21:00:00 9.7 4 Este 6 Este 0 -- -- 96
2020-11-26 20:00:00 9.8 4 Nordeste 6 Nordeste 0 -- -- 95
2020-11-26 19:00:00 9.8 3 Norte 4 Norte 0 -- -- 94
2020-11-26 18:00:00 10 2 Este 4 Este 0 -- -- 94
2020-11-26 17:00:00 10.2 3 Sudoeste 6 Norte 0.2 -- -- 93
2020-11-26 16:00:00 10 3 Nordeste 13 Norte 1 -- -- 94
2020-11-26 15:00:00 10.1 8 Norte 13 Norte 2 -- -- 93
2020-11-26 14:00:00 11 6 Nordeste 9 Nordeste 0.6 -- -- 86
2020-11-26 13:00:00 11.6 2 Nordeste 19 Este 0 -- -- 78
2020-11-26 12:00:00 11.2 8 Este 22 Sudeste 0 -- -- 82
2020-11-26 11:00:00 11 10 Sudeste 24 Sudeste 0.2 -- -- 83
2020-11-26 10:00:00 11.2 13 Sudeste 24 Sur 0 -- -- 80
2020-11-26 09:00:00 9.8 3 Sur 19 Sudeste 0 -- -- 91
2020-11-26 08:00:00 10.1 0 Calma 9 Sur 0 -- -- 91
2020-11-26 07:00:00 10.3 5 Sur 27 Sur 0.4 -- -- 91
2020-11-26 06:00:00 10.4 11 Sur 20 Sudeste 1.8 -- -- 93
2020-11-26 05:00:00 11.2 12 Sudeste 34 Sudeste 0 -- -- 85
2020-11-26 04:00:00 10.9 12 Sudeste 26 Este 0 -- -- 85
2020-11-26 03:00:00 10.8 11 Sudeste 21 Este 0.4 -- -- 88
2020-11-26 02:00:00 11.1 7 Sudeste 37 Sudeste 0.4 -- -- 88
2020-11-26 01:00:00 11.8 13 Sudeste 24 Sur 0 -- -- 82
2020-11-26 00:00:00 11.4 11 Sur 31 Sudeste 0 -- -- 89
2020-11-25 23:00:00 11 16 Sur 33 Sudeste 0.2 -- -- 92
2020-11-25 22:00:00 11.1 14 Sur 28 Sudeste 0 -- -- 92
2020-11-25 21:00:00 11.4 10 Sur 22 Sur 0 -- -- 88
2020-11-25 20:00:00 11.4 14 Sudeste 33 Sudeste 0.2 -- -- 89
2020-11-25 19:00:00 12.6 19 Sudeste 35 Sudeste 0 -- -- 78
2020-11-25 18:00:00 12.5 14 Sudeste 32 Sudeste 0 -- -- 78
2020-11-25 17:00:00 12.3 17 Sudeste 45 Sudeste 0.2 -- -- 81
2020-11-25 16:00:00 11.9 15 Sudeste 37 Sudeste 0 -- -- 82
2020-11-25 15:00:00 11 10 Sudeste 23 Sudeste 0.6 -- -- 90
2020-11-25 14:00:00 10.7 12 Sudeste 22 Sudeste 1.2 -- -- 90
2020-11-25 13:00:00 10.4 9 Sur 24 Sudeste 3 -- -- 90
2020-11-25 12:00:00 10.4 11 Sudeste 22 Sudeste 1.6 -- -- 90
2020-11-25 11:00:00 10.2 9 Sur 28 Sudeste 1.2 -- -- 91
2020-11-25 10:00:00 10.2 19 Sudeste 39 Sur 1 -- -- 90
2020-11-25 09:00:00 10.1 13 Sudeste 23 Sur 0.4 -- -- 89
2020-11-25 08:00:00 10.5 13 Sur 27 Sudeste 0.2 -- -- 84
2020-11-25 07:00:00 10.4 10 Sur 22 Sur 0 -- -- 81
2020-11-25 06:00:00 9.5 8 Sur 17 Sur 0 -- -- 86
2020-11-25 05:00:00 9.6 6 Sudoeste 9 Sudoeste 0 -- -- 86
2020-11-25 04:00:00 8.6 3 Oeste 4 Oeste 0 -- -- 88
2020-11-25 03:00:00 9.3 2 Sudoeste 8 Sudoeste 0 -- -- 85
2020-11-25 02:00:00 9.8 2 Oeste 14 Sur 0 -- -- 81
2020-11-25 01:00:00 11 8 Sur 16 Sur 0 -- -- 79
2020-11-25 00:00:00 10.2 4 Sur 9 Sur 0 -- -- 83
2020-11-24 23:00:00 9.6 2 Sur 5 Sur 0 -- -- 86
2020-11-24 22:00:00 8.9 0 Calma 5 Oeste 0 -- -- 89
2020-11-24 21:00:00 9.4 0 Calma 6 Noroeste 0 -- -- 87
2020-11-24 20:00:00 9.7 3 Sudoeste 6 Sudeste 0 -- -- 82
2020-11-24 19:00:00 10 5 Sudeste 8 Sudeste 0 -- -- 80
2020-11-24 18:00:00 11.4 3 Sur 9 Sudoeste 0 -- -- 78
2020-11-24 17:00:00 13.7 6 Sudoeste 14 Sudoeste 0 -- -- 65
2020-11-24 16:00:00 14.5 6 Sur 15 Sudoeste 0 -- -- 60
2020-11-24 15:00:00 15.3 7 Sur 14 Sur 0 -- -- 59
2020-11-24 14:00:00 14.1 6 Sudoeste 18 Sudoeste 0 -- -- 61
2020-11-24 13:00:00 13.4 9 Sur 15 Sur 0 -- -- 64
2020-11-24 12:00:00 11.1 5 Sudoeste 9 Sudoeste 0 -- -- 78
2020-11-24 11:00:00 9.5 3 Sudoeste 6 Norte 0 -- -- 88
2020-11-24 10:00:00 6.7 4 Nordeste 7 Nordeste 0 -- -- 95
2020-11-24 09:00:00 4.1 3 Nordeste 5 Nordeste 0 -- -- 96
2020-11-24 08:00:00 3.6 0 Calma 5 Nordeste 0 -- -- 95
2020-11-24 07:00:00 4.1 2 Nordeste 7 Norte 0 -- -- 95
2020-11-24 06:00:00 4.5 5 Nordeste 6 Nordeste 0 -- -- 96
2020-11-24 05:00:00 4.3 4 Nordeste 7 Nordeste 0 -- -- 96
2020-11-24 04:00:00 5.6 5 Nordeste 9 Nordeste 0 -- -- 96
2020-11-24 03:00:00 5.9 6 Nordeste 12 Nordeste 0 -- -- 95
2020-11-24 02:00:00 6.5 6 Nordeste 12 Nordeste 0 -- -- 94
2020-11-24 01:00:00 6.2 6 Nordeste 9 Nordeste 0 -- -- 95
2020-11-24 00:00:00 5.7 4 Nordeste 6 Norte 0 -- -- 94
2020-11-23 23:00:00 6.6 4 Norte 6 Norte 0 -- -- 95
2020-11-23 22:00:00 5.9 2 Nordeste 5 Este 0 -- -- 92
2020-11-23 21:00:00 7.3 3 Norte 6 Norte 0 -- -- 88
2020-11-23 20:00:00 8.8 0 Calma 5 Noroeste 0 -- -- 84
2020-11-23 19:00:00 10.6 0 Calma -- -- 0 -- -- 78
2020-11-23 18:00:00 14 -- -- -- -- 0 -- -- 69
2020-11-23 17:00:00 15.7 2 Sudoeste 9 Sudoeste 0 -- -- 58
2020-11-23 16:00:00 17.3 3 Sudoeste 11 Sudoeste 0 -- -- 51
2020-11-23 15:00:00 17.1 4 Sudoeste 11 Sudoeste 0 -- -- 53
2020-11-23 14:00:00 15.9 3 Oeste 8 Oeste 0 -- -- 54
2020-11-23 13:00:00 14.5 0 Calma 5 Norte 0 -- -- 59
2020-11-23 12:00:00 13.3 3 Sur 5 Sudeste 0 -- -- 61
2020-11-23 11:00:00 10.6 3 Este 9 Nordeste 0 -- -- 75
2020-11-23 10:00:00 7.5 7 Nordeste 13 Nordeste 0 -- -- 84
2020-11-23 09:00:00 5.1 8 Nordeste 14 Nordeste 0 -- -- 94
2020-11-23 08:00:00 4.4 4 Nordeste 8 Nordeste 0 -- -- 94
2020-11-23 07:00:00 5 4 Nordeste 8 Nordeste 0 -- -- 94
2020-11-23 06:00:00 4.5 4 Norte 7 Nordeste 0 -- -- 95
2020-11-23 05:00:00 4.4 3 Nordeste 8 Nordeste 0 -- -- 93
2020-11-23 04:00:00 5.6 5 Nordeste 10 Norte 0 -- -- 94
2020-11-23 03:00:00 6.3 9 Norte 14 Nordeste 0 -- -- 95
2020-11-23 02:00:00 5.1 2 Norte 5 Este 0 -- -- 94
2020-11-23 01:00:00 6.3 4 Este 8 Nordeste 0 -- -- 95
2020-11-23 00:00:00 7.2 6 Nordeste 8 Nordeste 0 -- -- 95
2020-11-22 23:00:00 6.5 4 Este 5 Este 0 -- -- 94
2020-11-22 22:00:00 7.2 4 Nordeste 5 Nordeste 0 -- -- 92
2020-11-22 21:00:00 7.6 3 Norte 5 Norte 0 -- -- 89
2020-11-22 20:00:00 8.8 4 Este -- -- 0 -- -- 82
2020-11-22 19:00:00 11.5 3 Sur 3 Sur 0 -- -- 72
2020-11-22 18:00:00 13.7 3 Sudoeste 5 Sudoeste 0 -- -- 68
2020-11-22 17:00:00 15.8 4 Sur 10 Sudoeste 0 -- -- 55
2020-11-22 16:00:00 17.3 5 Sudoeste 10 Sudoeste 0 -- -- 49
2020-11-22 15:00:00 17.4 5 Sur 11 Sudoeste 0 -- -- 50
2020-11-22 14:00:00 16.2 2 Sudoeste 6 Sudeste 0 -- -- 51
2020-11-22 13:00:00 15 2 Sudoeste 7 Sudoeste 0 -- -- 57
2020-11-22 12:00:00 13 3 Sudoeste 7 Norte 0 -- -- 62
2020-11-22 11:00:00 10.4 4 Nordeste 9 Norte 0 -- -- 73
2020-11-22 10:00:00 8.2 5 Nordeste 9 Nordeste 0 -- -- 86
2020-11-22 09:00:00 5 4 Nordeste 6 Nordeste 0 -- -- 97
2020-11-22 08:00:00 3.7 2 Nordeste 6 Nordeste 0 -- -- 94
2020-11-22 07:00:00 5.3 5 Nordeste 8 Nordeste 0 -- -- 94
2020-11-22 06:00:00 5.9 6 Nordeste 11 Nordeste 0 -- -- 93
2020-11-22 05:00:00 6.2 6 Nordeste 9 Nordeste 0 -- -- 91
2020-11-22 04:00:00 6.1 6 Nordeste 11 Nordeste 0 -- -- 95
2020-11-22 03:00:00 5.6 4 Nordeste 6 Nordeste 0 -- -- 94
2020-11-22 02:00:00 5.2 4 Nordeste 5 Nordeste 0 -- -- 93
2020-11-22 01:00:00 6.1 2 Sur 6 Norte 0 -- -- 93
2020-11-22 00:00:00 6.9 4 Nordeste 7 Nordeste 0 -- -- 92
2020-11-21 23:00:00 6.8 4 Norte 6 Nordeste 0 -- -- 92
2020-11-21 22:00:00 7.1 2 Nordeste 4 Nordeste 0 -- -- 88
2020-11-21 21:00:00 8 4 Norte 5 Nordeste 0 -- -- 80
2020-11-21 20:00:00 10.3 5 Noroeste 11 Noroeste 0 -- -- 68
2020-11-21 19:00:00 11.1 3 Oeste 7 Sudoeste 0 -- -- 66
2020-11-21 18:00:00 14.7 4 Sudoeste 8 Sur 0 -- -- 56
2020-11-21 17:00:00 17.4 3 Sudoeste 5 Sudoeste 0 -- -- 41
2020-11-21 16:00:00 18.8 0 Calma 9 Sudoeste 0 -- -- 37
2020-11-21 15:00:00 18.2 2 Este 7 Norte 0 -- -- 38
2020-11-21 14:00:00 16.8 2 Nordeste 7 Noroeste 0 -- -- 42
2020-11-21 13:00:00 15.2 0 Calma 10 Nordeste 0 -- -- 49
2020-11-21 12:00:00 13.6 6 Nordeste 12 Nordeste 0 -- -- 52
2020-11-21 11:00:00 11.4 9 Nordeste 21 Norte 0 -- -- 59
2020-11-21 10:00:00 10 8 Nordeste 14 Nordeste 0 -- -- 66
2020-11-21 09:00:00 6.5 0 Calma 10 Norte 0 -- -- 78
2020-11-21 08:00:00 7.3 7 Norte 12 Norte 0 -- -- 72
2020-11-21 07:00:00 7.8 6 Nordeste 17 Norte 0 -- -- 70
2020-11-21 06:00:00 7.8 6 Norte 12 Nordeste 0 -- -- 70
2020-11-21 05:00:00 7 6 Nordeste 10 Nordeste 0 -- -- 75
2020-11-21 04:00:00 8 5 Nordeste 9 Norte 0 -- -- 71
2020-11-21 03:00:00 8.2 4 Nordeste 9 Nordeste 0 -- -- 73
2020-11-21 02:00:00 10 5 Nordeste 14 Norte 0 -- -- 61
2020-11-21 01:00:00 11 7 Nordeste 11 Norte 0 -- -- 60
2020-11-21 00:00:00 11.8 6 Norte 14 Norte 0 -- -- 55
2020-11-20 23:00:00 12.3 8 Nordeste 16 Norte 0 -- -- 51
2020-11-20 22:00:00 11.5 6 Nordeste 14 Nordeste 0 -- -- 59
2020-11-20 21:00:00 12.6 10 Norte 20 Norte 0 -- -- 57
2020-11-20 20:00:00 13.2 8 Nordeste 18 Norte 0 -- -- 55
2020-11-20 19:00:00 14.1 9 Norte 18 Norte 0 -- -- 50
2020-11-20 18:00:00 15.8 11 Norte 24 Norte 0 -- -- 46
2020-11-20 17:00:00 18 12 Norte 21 Norte 0 -- -- 42
2020-11-20 16:00:00 18.9 14 Norte 24 Norte 0 -- -- 40
2020-11-20 15:00:00 19 16 Norte 25 Nordeste 0 -- -- 35
2020-11-20 14:00:00 18.8 10 Norte 24 Nordeste 0 -- -- 39
2020-11-20 13:00:00 18 13 Nordeste 24 Norte 0 -- -- 37
2020-11-20 12:00:00 17.1 12 Nordeste 27 Norte 0 -- -- 39
2020-11-20 11:00:00 15.4 15 Norte 25 Norte 0 -- -- 46
2020-11-20 10:00:00 14.2 9 Norte 18 Norte 0 -- -- 54
2020-11-20 09:00:00 12.4 11 Nordeste 17 Nordeste 0 -- -- 59
2020-11-20 08:00:00 12.3 10 Nordeste 21 Norte 0 -- -- 68
2020-11-20 07:00:00 12.4 13 Norte 27 Nordeste 0 -- -- 66
2020-11-20 06:00:00 12.3 14 Norte 35 Norte 0 -- -- 72
2020-11-20 05:00:00 12.6 17 Norte 32 Norte 0 -- -- 74
2020-11-20 04:00:00 13.2 16 Norte 27 Norte 0 -- -- 74
2020-11-20 03:00:00 13.9 16 Norte 27 Norte 0 -- -- 74
2020-11-20 02:00:00 14.3 15 Norte 27 Norte 0 -- -- 73
2020-11-20 01:00:00 14.9 11 Nordeste 25 Norte 0 -- -- 73
2020-11-20 00:00:00 15.8 15 Nordeste 32 Norte 0 -- -- 71
2020-11-19 23:00:00 16.2 19 Norte 33 Norte 0 -- -- 69
2020-11-19 22:00:00 16.6 15 Norte 32 Nordeste 0 -- -- 67
2020-11-19 21:00:00 17.4 18 Norte 30 Norte 0 -- -- 64
2020-11-19 20:00:00 17.6 17 Norte 25 Norte 0 -- -- 64
2020-11-19 19:00:00 17.5 9 Norte 14 Norte 0 -- -- 65
2020-11-19 18:00:00 19.5 8 Norte 14 Nordeste 0 -- -- 57
2020-11-19 17:00:00 22.3 8 Norte 21 Nordeste 0 -- -- 49
2020-11-19 16:00:00 23.5 14 Norte 30 Norte 0 -- -- 43
2020-11-19 15:00:00 23.1 17 Norte 27 Norte 0 -- -- 47
2020-11-19 14:00:00 22.4 12 Norte 21 Norte 0 -- -- 50
2020-11-19 13:00:00 20.7 21 Norte 33 Nordeste 0 -- -- 54
2020-11-19 12:00:00 18.9 20 Norte 36 Norte 0 -- -- 59
2020-11-19 11:00:00 14.5 5 Nordeste 15 Norte 0 -- -- 84
2020-11-19 10:00:00 10.3 3 Nordeste 6 Nordeste 0 -- -- 98
2020-11-19 09:00:00 7.2 2 Sur 8 Sur 0 -- -- 98
2020-11-19 08:00:00 7.1 5 Nordeste 9 Nordeste 0 -- -- 98
2020-11-19 07:00:00 7.5 2 Este 6 Nordeste 0.2 -- -- 98
2020-11-19 06:00:00 6.8 4 Sudoeste 8 Sur 0 -- -- 98
2020-11-19 05:00:00 7.5 5 Sudoeste 8 Sudoeste 0 -- -- 97
2020-11-19 04:00:00 7.8 6 Sudoeste 10 Sudoeste 0 -- -- 98
2020-11-19 03:00:00 7.3 6 Sudoeste 8 Sudoeste 0 -- -- 96
2020-11-19 02:00:00 8.3 0 Calma 4 Nordeste 0 -- -- 96
2020-11-19 01:00:00 9.1 0 Calma 6 Norte 0 -- -- 95
2020-11-19 00:00:00 9.9 0 Calma 5 Sur 0 -- -- 96
2020-11-18 23:00:00 11 3 Noroeste 6 Noroeste 0 -- -- 95
2020-11-18 22:00:00 10.6 0 Calma 5 Sudoeste 0 -- -- 95
2020-11-18 21:00:00 11.2 4 Sudoeste 6 Oeste 0 -- -- 94
2020-11-18 20:00:00 11.7 4 Sudoeste 5 Sudoeste 0 -- -- 93
2020-11-18 19:00:00 13.2 7 Sudoeste 10 Sudoeste 0 -- -- 89
2020-11-18 18:00:00 15.4 5 Sur 12 Sur 0 -- -- 82
2020-11-18 17:00:00 17.5 8 Sudoeste 12 Sudoeste 0 -- -- 75
2020-11-18 16:00:00 19.6 8 Sudoeste 12 Sudoeste 0 -- -- 67
2020-11-18 15:00:00 19.5 5 Sudoeste 12 Sur 0 -- -- 67
2020-11-18 14:00:00 18.9 3 Sudoeste 8 Sudoeste 0 -- -- 67
2020-11-18 13:00:00 17.5 6 Sudoeste 9 Sudoeste 0 -- -- 74
2020-11-18 12:00:00 15.2 2 Sudoeste 5 Sudoeste 0 -- -- 82
2020-11-18 11:00:00 12.9 0 Calma 4 Noroeste 0 -- -- 92
2020-11-18 10:00:00 10.1 0 Calma 3 Norte 0 -- -- 98
2020-11-18 09:00:00 7.4 0 Calma 2 Sudoeste 0 -- -- 99
2020-11-18 08:00:00 6.8 0 Calma 2 Sudoeste 0 -- -- 98
2020-11-18 07:00:00 7.2 0 Calma 4 Nordeste 0 -- -- 97
2020-11-18 06:00:00 7.6 0 Calma 4 Nordeste 0 -- -- 97
2020-11-18 05:00:00 8 3 Norte 5 Nordeste 0 -- -- 97
2020-11-18 04:00:00 8.6 4 Norte 6 Este 0 -- -- 97
2020-11-18 03:00:00 8.5 4 Nordeste 5 Nordeste 0 -- -- 97
2020-11-18 02:00:00 8.9 4 Nordeste 5 Nordeste 0 -- -- 97
2020-11-18 01:00:00 9.1 2 Nordeste 4 Nordeste 0 -- -- 97
2020-11-18 00:00:00 10 4 Nordeste 5 Nordeste 0 -- -- 96
2020-11-17 23:00:00 10.8 4 Nordeste 6 Nordeste 0 -- -- 96
2020-11-17 22:00:00 11.1 3 Norte 5 Norte 0 -- -- 96
2020-11-17 21:00:00 11.3 3 Nordeste 6 Este 0 -- -- 94
2020-11-17 20:00:00 12.8 0 Calma 6 Sudoeste 0 -- -- 92
2020-11-17 19:00:00 14.3 4 Sudoeste 6 Sudoeste 0 -- -- 89
2020-11-17 18:00:00 16.4 3 Sudoeste 8 Sudoeste 0 -- -- 83
2020-11-17 17:00:00 17.9 7 Sudoeste 12 Sudoeste 0 -- -- 77
2020-11-17 16:00:00 18.9 6 Sudoeste 12 Sudoeste 0 -- -- 72
2020-11-17 15:00:00 19.3 6 Sudoeste -- -- -- -- -- 70
2020-11-17 14:00:00 19.1 4 Sudoeste 9 Sudoeste 0.2 -- -- 65
2020-11-17 13:00:00 17.9 3 Sur 8 Sur 0 -- -- 71
2020-11-17 12:00:00 15.9 0 Calma 6 Sur 0 -- -- 77
2020-11-17 11:00:00 13.7 0 Calma 12 Nordeste 0 -- -- 81
2020-11-17 10:00:00 11.3 7 Nordeste 12 Nordeste 0 -- -- 88
2020-11-17 09:00:00 9.4 8 Nordeste 17 Nordeste 0 -- -- 92
2020-11-17 08:00:00 8.8 9 Nordeste 14 Nordeste 0 -- -- 93
2020-11-17 07:00:00 8.5 7 Nordeste 12 Nordeste 0 -- -- 96
2020-11-17 06:00:00 9 7 Nordeste 10 Nordeste 0 -- -- 96
2020-11-17 05:00:00 9 7 Nordeste 10 Nordeste 0 -- -- 96
2020-11-17 04:00:00 9.7 6 Nordeste 9 Nordeste 0 -- -- 96
2020-11-17 03:00:00 10.1 6 Nordeste 12 Nordeste 0 -- -- 96
2020-11-17 02:00:00 10.5 7 Nordeste 11 Nordeste 0 -- -- 97
2020-11-17 01:00:00 10.3 3 Nordeste 9 Nordeste 0 -- -- 96
2020-11-17 00:00:00 11.1 4 Norte 8 Norte 0 -- -- 96
2020-11-16 23:00:00 11.4 5 Nordeste 10 Este 0 -- -- 96
2020-11-16 22:00:00 11.3 4 Este 5 Este 0 -- -- 95
2020-11-16 21:00:00 12.2 0 Calma 4 Nordeste 0 -- -- 93
2020-11-16 20:00:00 13.1 3 Norte 6 Noroeste 0 -- -- 90
2020-11-16 19:00:00 14.9 3 Sudoeste 5 Sur 0 -- -- 85
2020-11-16 18:00:00 17.1 3 Sudoeste 9 Sudoeste 0 -- -- 80
2020-11-16 17:00:00 18.5 6 Sur 15 Sur 0 -- -- 74
2020-11-16 16:00:00 19.9 9 Sudoeste 17 Sur 0 -- -- 68
2020-11-16 15:00:00 20.2 6 Sudoeste 11 Sudoeste 0 -- -- 63
2020-11-16 14:00:00 19.5 3 Oeste 10 Sudoeste 0 -- -- 70
2020-11-16 13:00:00 18.2 5 Oeste 14 Sur 0 -- -- 77
2020-11-16 12:00:00 16.5 6 Sudoeste 12 Sur 0 -- -- 87
2020-11-16 11:00:00 14.3 6 Sur 10 Sudoeste 0 -- -- 91
2020-11-16 10:00:00 13 2 Este 6 Sur 0 -- -- 99
2020-11-16 09:00:00 10.6 2 Norte 9 Norte 0 -- -- 98
2020-11-16 08:00:00 10 4 Nordeste 8 Oeste 0 -- -- 98
2020-11-16 07:00:00 11.7 0 Calma 9 Norte 0 -- -- 97
2020-11-16 06:00:00 12.9 5 Nordeste 10 Nordeste 0 -- -- 98
2020-11-16 05:00:00 11.9 0 Calma 4 Oeste 0 -- -- 98
2020-11-16 04:00:00 11.6 3 Nordeste 5 Nordeste 0 -- -- 97
2020-11-16 03:00:00 12.1 0 Calma 6 Este 0 -- -- 97
2020-11-16 02:00:00 12.9 2 Norte 5 Norte 0 -- -- 97
2020-11-16 01:00:00 13.5 4 Norte 6 Noroeste 0 -- -- 96
2020-11-16 00:00:00 14.5 4 Este 8 Noroeste 0 -- -- 96
2020-11-15 23:00:00 15.3 8 Noroeste 10 Noroeste 0 -- -- 95
2020-11-15 22:00:00 16 3 Oeste 8 Sudeste 0 -- -- 94
2020-11-15 21:00:00 16.2 4 Sur 7 Oeste 0 -- -- 93
2020-11-15 20:00:00 16.3 0 Calma 5 Sur 0 -- -- 93
2020-11-15 19:00:00 16.6 3 Sur 5 Sudeste 0 -- -- 91
2020-11-15 18:00:00 17 0 Calma 6 Sur 0 -- -- 90
2020-11-15 17:00:00 17.5 3 Sur 6 Sur 0 -- -- 88
2020-11-15 16:00:00 17.6 3 Sudoeste 19 Noroeste 0 -- -- 88
2020-11-15 15:00:00 17.7 9 Sur 17 Sur 0 -- -- 88
2020-11-15 14:00:00 16.4 6 Sur 14 Sur 0 -- -- 92
2020-11-15 13:00:00 15.7 6 Sur 19 Sur 0.2 -- -- 94
2020-11-15 12:00:00 15.4 11 Sur 20 Sudeste 0 -- -- 94
2020-11-15 11:00:00 15.1 10 Sur 27 Sur 0 -- -- 95
2020-11-15 10:00:00 14.9 10 Sur 22 Sur 0 -- -- 95
2020-11-15 09:00:00 14.6 8 Sur 19 Sur 0 -- -- 97
2020-11-15 08:00:00 14.4 13 Sur 23 Sur 0 -- -- 97
2020-11-15 07:00:00 14.3 10 Sudoeste 22 Sudeste 0 -- -- 96
2020-11-15 06:00:00 14.3 10 Sur 24 Sur 0.8 -- -- 96
2020-11-15 05:00:00 14.1 7 Sur 18 Sur 0.4 -- -- 97
2020-11-15 04:00:00 13.9 9 Sur 17 Sur 0 -- -- 97
2020-11-15 03:00:00 13.2 2 Oeste 4 Sudoeste 0.4 -- -- 97
2020-11-15 02:00:00 13 0 Calma 4 Este 0.8 -- -- 97
2020-11-15 01:00:00 13 2 Noroeste 5 Oeste 0 -- -- 97
2020-11-15 00:00:00 12.7 0 Calma 3 Oeste 0 -- -- 96
2020-11-14 23:00:00 12.7 3 Oeste 6 Oeste 0 -- -- 96
2020-11-14 22:00:00 12.8 2 Oeste 6 Oeste 0 -- -- 96
2020-11-14 21:00:00 12.6 2 Noroeste 6 Sudoeste 0 -- -- 95
2020-11-14 20:00:00 13.8 4 Sudoeste 8 Oeste 0 -- -- 94
2020-11-14 19:00:00 13.9 3 Oeste 6 Sudoeste 0 -- -- 92
2020-11-14 18:00:00 14.6 5 Sudoeste 8 Oeste 0 -- -- 89
2020-11-14 17:00:00 15 5 Sudoeste 13 Sudoeste 0 -- -- 87
2020-11-14 16:00:00 14.6 7 Sudoeste 13 Sudoeste 0 -- -- 91
2020-11-14 15:00:00 14.8 8 Sudoeste 16 Sur 0 -- -- 88
2020-11-14 14:00:00 14.9 11 Sur 19 Sur 0 -- -- 84
2020-11-14 13:00:00 13.9 9 Oeste 16 Sudoeste 0 -- -- 87
2020-11-14 12:00:00 14.2 7 Oeste 11 Sudoeste 0 -- -- 85
2020-11-14 11:00:00 14 0 Calma 14 Sur 0 -- -- 86
2020-11-14 10:00:00 12.8 6 Sudoeste 10 Sudoeste 0 -- -- 89
2020-11-14 09:00:00 12.4 0 Calma 15 Noroeste 0 -- -- 92
2020-11-14 08:00:00 12.4 9 Sudeste 14 Sudeste 0.2 -- -- 90
2020-11-14 07:00:00 12.6 7 Sudoeste 11 Sudoeste 0 -- -- 85
2020-11-14 06:00:00 12.7 6 Sudoeste 13 Sur 0 -- -- 83
2020-11-14 05:00:00 11.9 2 Sudoeste 9 Oeste 0 -- -- 88
2020-11-14 04:00:00 11.3 3 Noroeste 6 Noroeste 0 -- -- 91
2020-11-14 03:00:00 11.4 0 Calma 6 Noroeste 0 -- -- 90
2020-11-14 02:00:00 11.9 5 Oeste 8 Oeste 0 -- -- 87
2020-11-14 01:00:00 11.6 2 Norte 5 Oeste 0 -- -- 90
2020-11-14 00:00:00 11.7 0 Calma 2 Nordeste 0 -- -- 91
2020-11-13 23:00:00 12.1 0 Calma 3 Oeste 0 -- -- 89
2020-11-13 22:00:00 12.2 0 Calma 3 Este 0 -- -- 87
2020-11-13 21:00:00 12.7 0 Calma 6 Oeste 0 -- -- 83
2020-11-13 20:00:00 13.1 6 Oeste 10 Oeste 0 -- -- 79
2020-11-13 19:00:00 13.4 5 Oeste 7 Oeste 0 -- -- 77
2020-11-13 18:00:00 14.3 6 Sudoeste 13 Sudoeste 0 -- -- 74
2020-11-13 17:00:00 15.6 6 Sudoeste 10 Sudoeste 0 -- -- 70
2020-11-13 16:00:00 15.9 5 Sudoeste 14 Sudoeste 0 -- -- 70
2020-11-13 15:00:00 17.5 4 Sur 10 Oeste 0 -- -- 62
2020-11-13 14:00:00 16.1 6 Sudoeste 13 Sudoeste 0 -- -- 68
2020-11-13 13:00:00 14 3 Oeste 6 Oeste 0 -- -- 76
2020-11-13 12:00:00 13.1 0 Calma 7 Sur 0 -- -- 83
2020-11-13 11:00:00 12.8 3 Nordeste 10 Norte 0 -- -- 77
2020-11-13 10:00:00 11.3 6 Nordeste 11 Nordeste 0 -- -- 86
2020-11-13 09:00:00 10.3 4 Nordeste 11 Este 0 -- -- 91
2020-11-13 08:00:00 10.2 6 Nordeste 11 Norte 0 -- -- 91
2020-11-13 07:00:00 10 7 Nordeste 12 Norte 0 -- -- 92
2020-11-13 06:00:00 9.9 6 Nordeste 12 Nordeste 0 -- -- 94
2020-11-13 05:00:00 9.7 6 Nordeste 13 Nordeste 0 -- -- 95
2020-11-13 04:00:00 9.4 6 Nordeste 10 Nordeste 0 -- -- 96
2020-11-13 03:00:00 8.9 3 Nordeste 6 Nordeste 0 -- -- 95
2020-11-13 02:00:00 9.7 2 Norte 6 Nordeste 0 -- -- 95
2020-11-13 01:00:00 10.3 4 Este 8 Nordeste 0 -- -- 95
2020-11-13 00:00:00 10.6 6 Norte 9 Norte 0 -- -- 96
2020-11-12 23:00:00 9.9 4 Nordeste 6 Este 0 -- -- 96
2020-11-12 22:00:00 10.5 0 Calma 5 Norte 0 -- -- 95
2020-11-12 21:00:00 10.3 4 Nordeste 15 Sudeste 0 -- -- 93
2020-11-12 20:00:00 10.6 2 Nordeste 4 Nordeste 0 -- -- 92
2020-11-12 19:00:00 12 3 Nordeste 4 Nordeste 0 -- -- 87
2020-11-12 18:00:00 14.4 0 Calma 2 Oeste 0 -- -- 82
2020-11-12 17:00:00 15.8 0 Calma 5 Sudoeste 0 -- -- 74
2020-11-12 16:00:00 16.2 0 Calma 5 Sur 0 -- -- 69
2020-11-12 15:00:00 15.9 0 Calma 5 Sur 0 -- -- 68
2020-11-12 14:00:00 15.2 2 Nordeste 5 Sudeste 0 -- -- 72
2020-11-12 13:00:00 14.6 2 Sudoeste 5 Sudoeste 0 -- -- 73
2020-11-12 12:00:00 13.4 3 Nordeste 8 Nordeste 0 -- -- 79
2020-11-12 11:00:00 12.3 5 Norte 9 Nordeste 0 -- -- 84
2020-11-12 10:00:00 11.3 4 Nordeste 13 Nordeste 0 -- -- 89
2020-11-12 09:00:00 9.8 6 Nordeste 10 Nordeste 0 -- -- 94
2020-11-12 08:00:00 10 5 Nordeste 8 Nordeste 0 -- -- 92
2020-11-12 07:00:00 9.9 5 Nordeste 9 Norte 0 -- -- 95
2020-11-12 06:00:00 9.6 0 Calma 6 Nordeste 0 -- -- 93
2020-11-12 05:00:00 10.1 0 Calma 6 Nordeste 0 -- -- 93
2020-11-12 04:00:00 10.6 4 Norte 11 Nordeste 0 -- -- 92
2020-11-12 03:00:00 10.4 8 Este 12 Nordeste 0 -- -- 94
2020-11-12 02:00:00 10.6 3 Nordeste 9 Norte 0 -- -- 94
2020-11-12 01:00:00 10.5 5 Nordeste 9 Este 0 -- -- 94
2020-11-12 00:00:00 10.8 5 Nordeste 8 Este 0 -- -- 94
2020-11-11 23:00:00 11.1 5 Norte 8 Norte 0 -- -- 93
2020-11-11 22:00:00 11.3 5 Este 6 Este 0 -- -- 93
2020-11-11 21:00:00 11.8 4 Norte 7 Norte 0 -- -- 90
2020-11-11 20:00:00 12.2 3 Noroeste 4 Norte 0 -- -- 86
2020-11-11 19:00:00 13.2 0 Calma 7 Oeste 0 -- -- 81
2020-11-11 18:00:00 14.8 0 Calma 4 Sudoeste 0 -- -- 78
2020-11-11 17:00:00 17.1 3 Sudoeste 9 Sudoeste 0 -- -- 68
2020-11-11 16:00:00 17.9 5 Sudoeste 11 Sudoeste 0 -- -- 63
2020-11-11 15:00:00 18 7 Sudoeste 13 Sudoeste 0 -- -- 62
2020-11-11 14:00:00 18.4 5 Sudoeste 10 Sudoeste 0 -- -- 63
2020-11-11 13:00:00 17.1 4 Sudoeste 9 Sudoeste 0 -- -- 64
2020-11-11 12:00:00 14.6 3 Nordeste 9 Nordeste 0 -- -- 74
2020-11-11 11:00:00 12.4 0 Calma 12 Nordeste 0 -- -- 82
2020-11-11 10:00:00 10.5 7 Nordeste 15 Norte 0 -- -- 90
2020-11-11 09:00:00 7.9 3 Este 8 Nordeste 0 -- -- 97
2020-11-11 08:00:00 7.7 5 Nordeste 11 Nordeste 0 -- -- 97
2020-11-11 07:00:00 8 6 Nordeste 10 Norte 0 -- -- 96
2020-11-11 06:00:00 7.6 4 Nordeste 9 Nordeste 0 -- -- 96
2020-11-11 05:00:00 7.9 5 Nordeste 8 Nordeste 0 -- -- 95
2020-11-11 04:00:00 8.7 4 Nordeste 10 Nordeste 0 -- -- 93
2020-11-11 03:00:00 9.6 8 Norte 13 Nordeste 0 -- -- 93
2020-11-11 02:00:00 9.8 7 Nordeste 13 Nordeste 0 -- -- 94
2020-11-11 01:00:00 9.8 5 Nordeste 9 Nordeste 0 -- -- 94
2020-11-11 00:00:00 9.6 6 Nordeste 9 Nordeste 0 -- -- 95
2020-11-10 23:00:00 10 4 Nordeste 7 Nordeste 0 -- -- 94
2020-11-10 22:00:00 10.7 5 Nordeste 8 Nordeste 0 -- -- 94
2020-11-10 21:00:00 10.8 4 Norte 6 Nordeste 0 -- -- 92
2020-11-10 20:00:00 12.5 2 Noroeste 6 Noroeste 0 -- -- 84
2020-11-10 19:00:00 14.1 4 Oeste 7 Oeste 0 -- -- 80
2020-11-10 18:00:00 16.2 4 Sudoeste 7 Oeste 0 -- -- 75
2020-11-10 17:00:00 18 4 Sudoeste 12 Sudoeste 0 -- -- 65
2020-11-10 16:00:00 19.1 6 Sudoeste 10 Sur 0 -- -- 61
2020-11-10 15:00:00 18.9 4 Sur 9 Sudoeste 0 -- -- 61
2020-11-10 14:00:00 17.9 3 Oeste 9 Sudoeste 0 -- -- 66
2020-11-10 13:00:00 16.8 2 Este 8 Oeste 0.2 -- -- 64
2020-11-10 12:00:00 15.3 3 Nordeste 11 Nordeste 0 -- -- 68
2020-11-10 11:00:00 13.9 8 Nordeste 13 Nordeste 0 -- -- 71
2020-11-10 10:00:00 11.8 6 Nordeste 15 Nordeste 0 -- -- 85
2020-11-10 09:00:00 9.8 8 Nordeste 15 Nordeste 0 -- -- 93
2020-11-10 08:00:00 8.8 7 Nordeste 13 Nordeste 0 -- -- 93
2020-11-10 07:00:00 8.6 4 Este 10 Nordeste 0 -- -- 93
2020-11-10 06:00:00 9.5 8 Norte 17 Nordeste 0 -- -- 91
2020-11-10 05:00:00 10.1 9 Norte 15 Norte 0 -- -- 89
2020-11-10 04:00:00 10 7 Norte 13 Nordeste 0 -- -- 92
2020-11-10 03:00:00 10 5 Nordeste 10 Norte 0 -- -- 94
2020-11-10 02:00:00 9.6 5 Nordeste 8 Norte 0 -- -- 96
2020-11-10 01:00:00 9.9 5 Este 13 Nordeste 0 -- -- 96
2020-11-10 00:00:00 10.1 7 Nordeste 9 Nordeste 0 -- -- 97
2020-11-09 23:00:00 11.1 6 Nordeste 10 Nordeste 0 -- -- 96
2020-11-09 22:00:00 11 5 Nordeste 9 Norte 0 -- -- 96
2020-11-09 21:00:00 11 4 Norte 7 Norte 0 -- -- 95
2020-11-09 20:00:00 11.8 2 Norte 6 Este 0 -- -- 92
2020-11-09 19:00:00 13.4 3 Oeste 6 Oeste 0.2 -- -- 88
2020-11-09 18:00:00 14.3 4 Oeste 6 Oeste 0 -- -- 86
2020-11-09 17:00:00 15.2 4 Oeste 6 Oeste 0 -- -- 80
2020-11-09 16:00:00 17.2 4 Sur 7 Sur 0 -- -- 67
2020-11-09 15:00:00 15.5 0 Calma 10 Oeste 0 -- -- 77
2020-11-09 14:00:00 15.3 3 Nordeste 8 Sudoeste 0 -- -- 78
2020-11-09 13:00:00 15.3 4 Oeste 9 Sudoeste 0 -- -- 78
2020-11-09 12:00:00 14.3 5 Sudoeste 12 Sur 0 -- -- 84
2020-11-09 11:00:00 13.4 3 Oeste 10 Oeste 0 -- -- 92
2020-11-09 10:00:00 13 6 Oeste 10 Sudoeste 0 -- -- 98
2020-11-09 09:00:00 11.4 3 Sudeste 5 Sudeste 0 -- -- 97
2020-11-09 08:00:00 10.6 0 Calma 5 Sur 0 -- -- 97
2020-11-09 07:00:00 10.4 3 Nordeste 7 Oeste 0.2 -- -- 96
2020-11-09 06:00:00 11.2 5 Sudoeste 9 Sur 0 -- -- 96
2020-11-09 05:00:00 12 4 Sudoeste 10 Sudoeste 0 -- -- 96
2020-11-09 04:00:00 12.2 6 Sudoeste 11 Oeste 0 -- -- 95
2020-11-09 03:00:00 12.5 4 Sudoeste 16 Oeste 0.2 -- -- 94
2020-11-09 02:00:00 12.7 6 Sur 15 Sur 0.6 -- -- 94
2020-11-09 01:00:00 12.6 7 Sur 18 Sudeste 0 -- -- 94
2020-11-09 00:00:00 12.9 9 Sur 21 Sur 0 -- -- 94
2020-11-08 23:00:00 13.1 6 Sur 26 Sudeste 2.2 -- -- 95
2020-11-08 22:00:00 13.3 13 Sudoeste 24 Sudoeste 1 -- -- 94
2020-11-08 21:00:00 13.6 11 Sur 22 Sur 0 -- -- 91
2020-11-08 20:00:00 13.5 13 Sur 29 Sur 0.4 -- -- 92
2020-11-08 19:00:00 13.4 10 Sur 22 Sur 0.6 -- -- 93
2020-11-08 18:00:00 13.4 8 Sudeste 24 Sur 4.4 -- -- 94
2020-11-08 17:00:00 13.6 14 Sur 26 Sur 1.8 -- -- 91
2020-11-08 16:00:00 13.7 9 Sudeste 23 Sudeste 0.6 -- -- 92
2020-11-08 15:00:00 14 12 Sudeste 34 Sudeste 0.8 -- -- 90
2020-11-08 14:00:00 14.4 18 Sudeste 32 Sudeste 0.2 -- -- 84
2020-11-08 13:00:00 14.2 14 Sur 34 Sudeste 0 -- -- 85
2020-11-08 12:00:00 13.9 12 Sur 39 Sudeste 0 -- -- 86
2020-11-08 11:00:00 13.6 19 Sudeste 36 Sudeste 0 -- -- 86
2020-11-08 10:00:00 12.6 18 Sudeste 36 Sudeste 0.2 -- -- 90
2020-11-08 09:00:00 12.4 16 Sudeste 33 Sudeste 0.4 -- -- 90
2020-11-08 08:00:00 13.2 17 Sur 33 Sudeste 0 -- -- 84
2020-11-08 07:00:00 13.3 15 Sudeste 30 Sur 0 -- -- 83
2020-11-08 06:00:00 13.4 13 Sur 26 Sur 0 -- -- 82
2020-11-08 05:00:00 13.2 13 Sur 24 Sur 0 -- -- 83
2020-11-08 04:00:00 13.1 8 Sur 17 Sur 0 -- -- 84
2020-11-08 03:00:00 13.6 9 Sur 24 Sur 0 -- -- 81
2020-11-08 02:00:00 14 12 Sur 25 Sur 0 -- -- 79
2020-11-08 01:00:00 14.4 14 Sur 29 Sudeste 0 -- -- 76
2020-11-08 00:00:00 14.5 7 Sur 18 Sudeste 0 -- -- 74
2020-11-07 23:00:00 14.8 12 Sur 21 Sur 0 -- -- 73
2020-11-07 22:00:00 14.6 10 Sur 18 Sudeste 0 -- -- 74
2020-11-07 21:00:00 14.1 9 Sur 15 Sur 0 -- -- 78
2020-11-07 20:00:00 13.8 7 Sudeste 17 Sudeste 0 -- -- 79
2020-11-07 19:00:00 14 9 Sur 13 Sur 0 -- -- 79
2020-11-07 18:00:00 15.3 9 Sur 19 Sur 0 -- -- 77
2020-11-07 17:00:00 15.4 4 Sur 13 Sudoeste 0 -- -- 79
2020-11-07 16:00:00 15.8 8 Sur 19 Oeste 0 -- -- 76
2020-11-07 15:00:00 14.7 16 Oeste 31 Sudoeste 0 -- -- 81
2020-11-07 14:00:00 15.6 10 Sudoeste 24 Sudoeste 0.2 -- -- 74
2020-11-07 13:00:00 14.8 12 Sudoeste 24 Sudoeste 0.2 -- -- 90
2020-11-07 12:00:00 13.3 10 Sudoeste 21 Sudoeste 0 -- -- 94
2020-11-07 11:00:00 13.1 10 Sudoeste 23 Sudoeste 0.2 -- -- 95
2020-11-07 10:00:00 12.6 13 Sudoeste 21 Sudoeste 0 -- -- 96
2020-11-07 09:00:00 12.1 8 Sudoeste 13 Sudoeste 0.2 -- -- 96
2020-11-07 08:00:00 11.9 8 Sudoeste 19 Sudoeste 1 -- -- 95
2020-11-07 07:00:00 12.5 13 Sudoeste 33 Sudoeste 7.8 -- -- 95
2020-11-07 06:00:00 12.5 6 Sudoeste 12 Sudoeste 1.4 -- -- 96
2020-11-07 05:00:00 12.1 3 Sudoeste 6 Sudoeste 0 -- -- 96
2020-11-07 04:00:00 12 2 Norte 8 Nordeste 1.2 -- -- 96
2020-11-07 03:00:00 12.1 5 Sudeste 14 Sudeste 2.4 -- -- 95
2020-11-07 02:00:00 12 2 Sur 14 Oeste 0.2 -- -- 95
2020-11-07 01:00:00 12.1 5 Oeste 15 Oeste 0.4 -- -- 94
2020-11-07 00:00:00 12.1 4 Sudoeste 15 Sudoeste 3.8 -- -- 95
2020-11-06 23:00:00 12.2 6 Oeste 10 Oeste 0.2 -- -- 94
2020-11-06 22:00:00 12.2 3 Este 8 Sudeste 0.2 -- -- 94
2020-11-06 21:00:00 12.2 5 Este 21 Sudoeste 0.8 -- -- 93
2020-11-06 20:00:00 12.6 7 Sudoeste 29 Sudoeste 2.6 -- -- 88
2020-11-06 19:00:00 13.8 17 Sudoeste 54 Sudeste 0 -- -- 79
2020-11-06 18:00:00 18.8 25 Sudeste 47 Sudeste 0 -- -- 60
2020-11-06 17:00:00 19.8 23 Sudeste 40 Sudeste 0 -- -- 54
2020-11-06 16:00:00 19.6 14 Sudeste 53 Sudeste 0 -- -- 55
2020-11-06 15:00:00 20.1 21 Sudeste 45 Sudeste 0 -- -- 51
2020-11-06 14:00:00 20.1 20 Sur 55 Sudeste 0 -- -- 55
2020-11-06 13:00:00 19.7 24 Sudeste 54 Sudeste 0 -- -- 56
2020-11-06 12:00:00 18.6 27 Sudeste 57 Este 0 -- -- 58
2020-11-06 11:00:00 17.2 25 Sudeste 41 Sudeste 0.2 -- -- 66
2020-11-06 10:00:00 16.3 4 Este 25 Sudeste 0 -- -- 68
2020-11-06 09:00:00 14.9 10 Sudeste 19 Sudeste 0 -- -- 74
2020-11-06 08:00:00 15 11 Sudeste 35 Sudeste 0 -- -- 73
2020-11-06 07:00:00 16.4 21 Sudeste 44 Sudeste 0 -- -- 65
2020-11-06 06:00:00 15.8 21 Sudeste 39 Sudeste 0 -- -- 67
2020-11-06 05:00:00 12.7 7 Norte 12 Norte 0 -- -- 91
2020-11-06 04:00:00 12.5 4 Norte 21 Oeste 0 -- -- 92
2020-11-06 03:00:00 13.2 10 Oeste 22 Oeste 0.6 -- -- 88
2020-11-06 02:00:00 -- 15 Sur 36 Sudeste 0 -- -- --
2020-11-06 01:00:00 14.6 5 Sur 20 Sudeste 0 -- -- 75
2020-11-06 00:00:00 12.8 2 Sudoeste 21 Este 0 -- -- 81
2020-11-05 23:00:00 12.7 7 Este 21 Este 0 -- -- 80
2020-11-05 22:00:00 10.1 6 Noroeste 10 Noroeste 0 -- -- 93
2020-11-05 21:00:00 10.7 4 Oeste 8 Oeste 0 -- -- 90
2020-11-05 20:00:00 12.3 4 Nordeste 15 Norte 0 -- -- 85
2020-11-05 19:00:00 12 6 Norte 16 Norte 0 -- -- 89
2020-11-05 18:00:00 11.5 9 Nordeste 30 Sudeste 4.4 -- -- 92
2020-11-05 17:00:00 12.1 20 Sudeste 36 Sudeste 6.2 -- -- 91
2020-11-05 16:00:00 13.4 10 Sur 22 Sur 1.6 -- -- 89
2020-11-05 15:00:00 14.4 10 Sudeste 31 Sudeste 1 -- -- 85
2020-11-05 14:00:00 16.2 11 Este 31 Este 0 -- -- 72
2020-11-05 13:00:00 16.7 17 Sudeste 49 Sudeste 0 -- -- 71
2020-11-05 12:00:00 15.5 19 Este 40 Este 0 -- -- 73
2020-11-05 11:00:00 14.8 18 Este 50 Este 0 -- -- 76
2020-11-05 10:00:00 15.1 28 Este 53 Sudeste 0 -- -- 73
2020-11-05 09:00:00 14.5 22 Este 51 Sudeste 0.2 -- -- 73
2020-11-05 08:00:00 14.5 25 Este 56 Este 0.2 -- -- 76
2020-11-05 07:00:00 14 21 Este 46 Este 0 -- -- 78
2020-11-05 06:00:00 12.9 15 Este 35 Este 0 -- -- 84
2020-11-05 05:00:00 11.6 11 Nordeste 24 Nordeste 1 -- -- 87
2020-11-05 04:00:00 11.3 4 Este 17 Nordeste 0.8 -- -- 89
2020-11-05 03:00:00 11.2 9 Norte 17 Nordeste 0 -- -- 87
2020-11-05 02:00:00 11 0 Calma 15 Norte 0.4 -- -- 87
2020-11-05 01:00:00 10.8 6 Norte 17 Norte 0 -- -- 85
2020-11-05 00:00:00 10.5 7 Norte 25 Norte 0 -- -- 86
2020-11-04 23:00:00 10.4 14 Norte 33 Norte 0 -- -- 85
2020-11-04 22:00:00 10.7 12 Norte 22 Nordeste 0 -- -- 84
2020-11-04 21:00:00 10.2 13 Nordeste 29 Norte 0.6 -- -- 87
2020-11-04 20:00:00 9.7 11 Norte 26 Norte 0.8 -- -- 87
2020-11-04 19:00:00 9.9 9 Norte 22 Norte 0.2 -- -- 82
2020-11-04 18:00:00 9.9 13 Norte 24 Norte 0 -- -- 83
2020-11-04 17:00:00 10.9 10 Nordeste 20 Norte 0 -- -- 81
2020-11-04 16:00:00 10.7 12 Norte 32 Norte 0.6 -- -- 82
2020-11-04 15:00:00 12.2 13 Norte 23 Norte 0 -- -- 66
2020-11-04 14:00:00 12.8 14 Norte 27 Nordeste 0 -- -- 63
2020-11-04 13:00:00 11.7 16 Nordeste 28 Nordeste 0 -- -- 64
2020-11-04 12:00:00 10.6 12 Nordeste 27 Nordeste 0 -- -- 67
2020-11-04 11:00:00 10.5 18 Nordeste 33 Nordeste 0 -- -- 68
2020-11-04 10:00:00 9.6 18 Norte 34 Norte 0 -- -- 70
2020-11-04 09:00:00 9.2 21 Norte 33 Norte 0 -- -- 71
2020-11-04 08:00:00 9.5 18 Nordeste 32 Nordeste 0 -- -- 71
2020-11-04 07:00:00 9.9 17 Norte 31 Norte 0 -- -- 71
2020-11-04 06:00:00 10.2 17 Nordeste 30 Norte 0 -- -- 72
2020-11-04 05:00:00 10.3 14 Norte 25 Norte 0 -- -- 72
2020-11-04 04:00:00 10.9 13 Nordeste 23 Norte 0 -- -- 72
2020-11-04 03:00:00 11.6 13 Norte 24 Nordeste 0 -- -- 71
2020-11-04 02:00:00 12 13 Norte 25 Norte 0 -- -- 70
2020-11-04 01:00:00 12.5 16 Norte 27 Norte 0 -- -- 69
2020-11-04 00:00:00 13.3 12 Norte 22 Nordeste 0 -- -- 65
2020-11-03 23:00:00 14.2 11 Nordeste 24 Norte 0 -- -- 63
2020-11-03 22:00:00 14.3 13 Nordeste 31 Norte 0 -- -- 63
2020-11-03 21:00:00 14.8 20 Nordeste 31 Norte 0 -- -- 65
2020-11-03 20:00:00 15.4 14 Nordeste 33 Norte 0 -- -- 61
2020-11-03 19:00:00 15.7 19 Norte 35 Norte 0 -- -- 59
2020-11-03 18:00:00 16 21 Norte 35 Nordeste 0 -- -- 61
2020-11-03 17:00:00 16.5 18 Nordeste 33 Norte 0 -- -- 64
2020-11-03 16:00:00 16.5 19 Norte 33 Norte 0 -- -- 66
2020-11-03 15:00:00 16.4 18 Norte 31 Norte 0 -- -- 67
2020-11-03 14:00:00 17 20 Norte 32 Norte 0 -- -- 63
2020-11-03 13:00:00 17.4 20 Norte 36 Norte 0 -- -- 63
2020-11-03 12:00:00 15.8 22 Norte 39 Norte 0 -- -- 67
2020-11-03 11:00:00 15.1 21 Norte 40 Nordeste 0 -- -- 65
2020-11-03 10:00:00 14.2 23 Norte 40 Norte 0 -- -- 69
2020-11-03 09:00:00 13.5 22 Norte 38 Norte 0 -- -- 69
2020-11-03 08:00:00 13.4 21 Norte 33 Norte 0 -- -- 66
2020-11-03 07:00:00 13.9 21 Norte 32 Norte 0 -- -- 71
2020-11-03 06:00:00 13.9 15 Norte 28 Norte 0 -- -- 80
2020-11-03 05:00:00 15.3 7 Nordeste 19 Norte 0 -- -- 81
2020-11-03 04:00:00 16.1 14 Norte 25 Nordeste 0 -- -- 83
2020-11-03 03:00:00 16 8 Norte 13 Norte 0 -- -- 87
2020-11-03 02:00:00 14.9 4 Norte 8 Nordeste 0 -- -- 92
2020-11-03 01:00:00 14.4 3 Norte 7 Norte 0 -- -- 94
2020-11-03 00:00:00 14.4 0 Calma 6 Sur 0 -- -- 95
2020-11-02 23:00:00 15.2 5 Norte 10 Norte 0 -- -- 93
2020-11-02 22:00:00 14.7 5 Nordeste 9 Noroeste 0 -- -- 94
2020-11-02 21:00:00 15.2 5 Norte 7 Norte 0 -- -- 94
2020-11-02 20:00:00 15.1 -- -- -- -- 0 -- -- 92
2020-11-02 19:00:00 16.4 3 Sudoeste 7 Sur 0 -- -- 87
2020-11-02 18:00:00 17.3 4 Sudoeste 9 Sudoeste 0 -- -- 85
2020-11-02 17:00:00 18 5 Sur 11 Sudoeste 0 -- -- 83
2020-11-02 16:00:00 18.6 7 Sudoeste 10 Sudoeste 0 -- -- 80
2020-11-02 15:00:00 19.5 5 Sudoeste 8 Sudoeste 0 -- -- 76
2020-11-02 14:00:00 20.1 3 Sudoeste 10 Norte 0 -- -- 67
2020-11-02 13:00:00 19.7 6 Norte 14 Norte 0 -- -- 68
2020-11-02 12:00:00 18.5 9 Norte 15 Norte 0 -- -- 71
2020-11-02 11:00:00 17.5 6 Norte 12 Nordeste 0 -- -- 79
2020-11-02 10:00:00 15.8 4 Nordeste 13 Norte 0 -- -- 88
2020-11-02 09:00:00 14.6 6 Nordeste 10 Nordeste 0 -- -- 93
2020-11-02 08:00:00 13.7 0 Calma 4 Norte 0 -- -- 93
2020-11-02 07:00:00 14.2 3 Norte 7 Nordeste 0 -- -- 93
2020-11-02 06:00:00 14.3 4 Nordeste 9 Nordeste 0 -- -- 94
2020-11-02 05:00:00 14.3 4 Nordeste 7 Norte 0 -- -- 95
2020-11-02 04:00:00 14.1 3 Norte 4 Norte 0 -- -- 95
2020-11-02 03:00:00 14.3 2 Norte 3 Norte 0 -- -- 94
2020-11-02 02:00:00 14.5 0 Calma 3 Nordeste 0 -- -- 93
2020-11-02 01:00:00 14.6 2 Nordeste 3 Este 0 -- -- 92
2020-11-02 00:00:00 14.8 2 Nordeste 3 Nordeste 0 -- -- 92
2020-11-01 23:00:00 15.1 3 Norte 3 Norte 0 -- -- 90
2020-11-01 22:00:00 15.4 0 Calma 3 Sudeste 0 -- -- 88
2020-11-01 21:00:00 15.9 2 Este 4 Sudeste 0 -- -- 85
2020-11-01 20:00:00 17 3 Sudoeste 6 Sudoeste 0 -- -- 79
2020-11-01 19:00:00 17.8 5 Sudoeste 8 Sudoeste 0 -- -- 75
2020-11-01 18:00:00 18.9 4 Sur 7 Sudoeste 0 -- -- 71
2020-11-01 17:00:00 20.2 4 Sudoeste 8 Sudoeste 0 -- -- 66
2020-11-01 16:00:00 20.7 5 Sur 10 Sur 0 -- -- 64
2020-11-01 15:00:00 21.1 5 Sudoeste 13 Sudoeste 0 -- -- 61
2020-11-01 14:00:00 20.7 6 Sudoeste 12 Sudoeste 0 -- -- 63
2020-11-01 13:00:00 20.5 6 Sur 11 Sur 0 -- -- 62
2020-11-01 12:00:00 18.2 0 Calma 10 Nordeste 0 -- -- 69
2020-11-01 11:00:00 16.2 6 Nordeste 11 Nordeste 0 -- -- 72
2020-11-01 10:00:00 14.5 6 Nordeste 10 Nordeste 0 -- -- 81
2020-11-01 09:00:00 12.3 4 Nordeste 13 Nordeste 0 -- -- 89
2020-11-01 08:00:00 10.6 3 Este 7 Este 0 -- -- 94
2020-11-01 07:00:00 11.5 4 Este 10 Nordeste 0 -- -- 91
2020-11-01 06:00:00 11.7 6 Nordeste 11 Nordeste 0 -- -- 92
2020-11-01 05:00:00 12.4 7 Nordeste 15 Nordeste 0 -- -- 89
2020-11-01 04:00:00 11.8 6 Este 11 Nordeste 0 -- -- 92
2020-11-01 03:00:00 12.4 8 Nordeste 13 Norte 0 -- -- 89
2020-11-01 02:00:00 13.1 9 Norte 15 Norte 0 -- -- 88
2020-11-01 01:00:00 12.5 4 Nordeste 10 Nordeste 0 -- -- 92
2020-11-01 00:00:00 13.2 6 Nordeste 10 Nordeste 0 -- -- 91
2020-10-31 23:00:00 13.7 6 Nordeste 8 Norte 0 -- -- 92
2020-10-31 22:00:00 13.8 4 Nordeste 6 Nordeste 0 -- -- 90
2020-10-31 21:00:00 14.1 4 Norte 6 Nordeste 0 -- -- 87
2020-10-31 20:00:00 15.8 3 Nordeste 5 Sudoeste 0 -- -- 79
2020-10-31 19:00:00 18 4 Sudoeste 6 Sudoeste 0 -- -- 70
2020-10-31 18:00:00 20.9 5 Sudoeste 9 Sudoeste 0 -- -- 61
2020-10-31 17:00:00 22.4 6 Sudoeste 13 Sudoeste 0 -- -- 53
2020-10-31 16:00:00 23.5 6 Sur 13 Sur 0 -- -- 49
2020-10-31 15:00:00 23.2 6 Sudoeste 13 Sudoeste 0 -- -- 49
2020-10-31 14:00:00 22.2 5 Oeste 10 Sudoeste 0 -- -- 55
2020-10-31 13:00:00 20.7 5 Sudoeste 9 Sudoeste 0 -- -- 60
2020-10-31 12:00:00 19.7 3 Oeste 8 Oeste 0 -- -- 63
2020-10-31 11:00:00 17.1 2 Oeste 8 Noroeste 0 -- -- 73
2020-10-31 10:00:00 14.1 7 Nordeste 12 Nordeste 0 -- -- 82
2020-10-31 09:00:00 11.5 7 Nordeste 15 Nordeste 0 -- -- 89
2020-10-31 08:00:00 9.8 6 Nordeste 10 Nordeste 0 -- -- 94
2020-10-31 07:00:00 10.3 6 Nordeste 14 Nordeste 0.2 -- -- 93
2020-10-31 06:00:00 10.3 5 Nordeste 11 Nordeste 0 -- -- 94
2020-10-31 05:00:00 10.2 6 Este 9 Este 0 -- -- 94
2020-10-31 04:00:00 11.3 5 Nordeste 14 Norte 0 -- -- 92
2020-10-31 03:00:00 10.9 7 Nordeste 10 Este 0 -- -- 95
2020-10-31 02:00:00 11.3 5 Nordeste 11 Este 0 -- -- 94
2020-10-31 01:00:00 11.8 5 Nordeste 10 Nordeste 0 -- -- 93
2020-10-31 00:00:00 12.4 6 Nordeste 9 Nordeste 0 -- -- 93
2020-10-30 23:00:00 13.1 5 Nordeste 9 Nordeste 0 -- -- 91
2020-10-30 22:00:00 12.8 4 Nordeste 5 Norte 0 -- -- 92
2020-10-30 21:00:00 13.5 3 Norte 5 Nordeste 0 -- -- 89
2020-10-30 20:00:00 15.3 2 Norte 7 Sudoeste 0 -- -- 81
2020-10-30 19:00:00 17.8 5 Sudoeste -- -- 0 -- -- 73
2020-10-30 18:00:00 20.9 4 Sudoeste 7 Oeste 0 -- -- 62
2020-10-30 17:00:00 22.7 3 Sudoeste 8 Sudoeste 0 -- -- 53
2020-10-30 16:00:00 23 2 Sudeste 10 Oeste 0 -- -- 54
2020-10-30 15:00:00 22.8 3 Sur 8 Sudoeste 0 -- -- 53
2020-10-30 14:00:00 21.3 3 Sur 9 Sur 0 -- -- 58
2020-10-30 13:00:00 19.9 4 Oeste 8 Oeste 0 -- -- 62
2020-10-30 12:00:00 18 0 Calma 7 Nordeste 0 -- -- 67
2020-10-30 11:00:00 15.4 3 Nordeste 12 Nordeste 0 -- -- 76
2020-10-30 10:00:00 13.2 7 Nordeste 13 Nordeste 0 -- -- 83
2020-10-30 09:00:00 10.9 6 Nordeste 10 Nordeste 0 -- -- 93
2020-10-30 08:00:00 8.7 4 Nordeste 8 Nordeste 0 -- -- 96
2020-10-30 07:00:00 9.3 6 Nordeste 11 Norte 0 -- -- 95
2020-10-30 06:00:00 10 7 Nordeste 14 Nordeste 0 -- -- 95
2020-10-30 05:00:00 9.3 4 Este 8 Nordeste 0 -- -- 96
2020-10-30 04:00:00 10 6 Nordeste 9 Nordeste 0 -- -- 96
2020-10-30 03:00:00 10.5 4 Nordeste 9 Nordeste 0 -- -- 95
2020-10-30 02:00:00 10.7 5 Nordeste 10 Nordeste 0 -- -- 94
2020-10-30 01:00:00 11.4 6 Nordeste 11 Nordeste 0 -- -- 94
2020-10-30 00:00:00 11.4 5 Nordeste 8 Nordeste 0 -- -- 94
2020-10-29 23:00:00 12.3 5 Nordeste 13 Nordeste 0 -- -- 92
2020-10-29 22:00:00 12.1 4 Nordeste 9 Norte 0 -- -- 92
2020-10-29 21:00:00 13.7 8 Nordeste 10 Norte 0 -- -- 89
2020-10-29 20:00:00 14 3 Noroeste 6 Noroeste 0 -- -- 84
2020-10-29 19:00:00 15.5 0 Calma 5 Norte 0 -- -- 79
2020-10-29 18:00:00 18.3 4 Norte 6 Noroeste 0 -- -- 67
2020-10-29 17:00:00 19.8 3 Este 9 Este 0 -- -- 62
2020-10-29 16:00:00 20.2 4 Este 9 Sudeste 0 -- -- 60
2020-10-29 15:00:00 19.9 3 Noroeste 10 Sudeste 0 -- -- 60
2020-10-29 14:00:00 19.4 3 Sur 11 Sudeste 0 -- -- 62
2020-10-29 13:00:00 19.3 6 Sudoeste 18 Sudeste 0 -- -- 65
2020-10-29 12:00:00 18.3 8 Sur 18 Sur 0 -- -- 70
2020-10-29 11:00:00 16.4 7 Sudoeste 12 Sudoeste 0 -- -- 81
2020-10-29 10:00:00 14.5 3 Norte 8 Nordeste 0 -- -- 87
2020-10-29 09:00:00 12 3 Nordeste 8 Nordeste 0 -- -- 96
2020-10-29 08:00:00 11.2 5 Nordeste 10 Norte 0.2 -- -- 95
2020-10-29 07:00:00 11.5 6 Nordeste 12 Nordeste 0 -- -- 96
2020-10-29 06:00:00 11 5 Nordeste 14 Nordeste 0 -- -- 97
2020-10-29 05:00:00 10.6 8 Nordeste 12 Nordeste 0 -- -- 98
2020-10-29 04:00:00 10.6 8 Norte 12 Norte 0 -- -- 98
2020-10-29 03:00:00 10.3 5 Nordeste 8 Nordeste 0 -- -- 98
2020-10-29 02:00:00 11.1 3 Nordeste 9 Nordeste 0 -- -- 98
2020-10-29 01:00:00 10.6 4 Nordeste 6 Norte 0 -- -- 98
2020-10-29 00:00:00 9.8 2 Nordeste 4 Nordeste 0 -- -- 97
2020-10-28 23:00:00 10.9 2 Norte 5 Noroeste 0 -- -- 97
2020-10-28 22:00:00 11.1 0 Calma 8 Sudoeste 0 -- -- 96
2020-10-28 21:00:00 11.7 2 Nordeste 8 Noroeste 0 -- -- 96
2020-10-28 20:00:00 12.7 5 Noroeste 11 Oeste 0 -- -- 95
2020-10-28 19:00:00 13.8 3 Norte 6 Norte 0 -- -- 94
2020-10-28 18:00:00 15.4 4 Nordeste 8 Nordeste 0 -- -- 93
2020-10-28 17:00:00 15.6 0 Calma 7 Sudoeste 0 -- -- 90
2020-10-28 16:00:00 15.4 4 Sur 8 Sudeste 0.2 -- -- 93
2020-10-28 15:00:00 14.7 3 Sur 13 Sur 0.2 -- -- 94
2020-10-28 14:00:00 14.7 5 Sur 10 Sur 0 -- -- 94
2020-10-28 13:00:00 14.6 4 Sur 7 Sur 0.2 -- -- 95
2020-10-28 12:00:00 13.7 3 Sur 8 Sudoeste 0.4 -- -- 96
2020-10-28 11:00:00 13.4 4 Sudoeste 12 Sur 0 -- -- 96
2020-10-28 10:00:00 13 5 Sur 9 Sur 0 -- -- 97
2020-10-28 09:00:00 12.6 4 Sur 6 Sudoeste 0.2 -- -- 97
2020-10-28 08:00:00 12.2 3 Sudeste 5 Sudeste 0.6 -- -- 97
2020-10-28 07:00:00 12.2 0 Calma 5 Sudeste 0 -- -- 97
2020-10-28 06:00:00 12.1 4 Sudeste 8 Sudeste 0.2 -- -- 96
2020-10-28 05:00:00 12.1 3 Sudeste 5 Sudeste 0 -- -- 96
2020-10-28 04:00:00 12.1 0 Calma 4 Sudeste 0 -- -- 95
2020-10-28 03:00:00 12.4 0 Calma 3 Oeste 0 -- -- 94
2020-10-28 02:00:00 12.4 2 Sudoeste 4 Sudoeste 0 -- -- 94
2020-10-28 01:00:00 12.3 0 Calma 3 Sudoeste 0 -- -- 94
2020-10-28 00:00:00 12.3 2 Sur 4 Sudoeste 0 -- -- 94